FLUGWETTER MÜNCHEN AIRPORT

[source: ADDS]
METAR
EDDM 252050Z 27006KT 240V300 9999 FEW032 BKN090 BKN140 18/16 Q1018 NOSIG =
TAF
TAF EDDM 251700Z 2518/2624 26008KT 9999 BKN030 PROB30 TEMPO 2518/2519 29015G35KT 3000 TSRA BKN030CB TEMPO 2519/2524 4000 RA BKN012 PROB30 TEMPO 2600/2608 BKN012 =
SR / SS: 03:15 / 19:19 UTC (Tag 2016-06-25)

QR-Code dieser Seite

QR-Code dieser Seite